Crossville, Tennessee
Current Conditions -  °F | °C
As of 5:53 PM on Saturday 22 Nov 2014 (Local Time) from KCSV Reporting Station
Clear Clear  
Wind Chill: 53°   Ceiling: Unl
Heat Index: 53°   Visibility: 10mi
Dew Point: 32°   Wind: 9mph
Humidity: 45%   Direction: 170°S
Pressure: 30.18"   Gusts: 17mph
Location:  35.95°N, 85.03°W
Report Text: KCSV 222353Z AUTO 17008G15KT 10SM CLR 12/00 A3018 RMK AO2 SLP222 T01170000 10144 20117 58016
Loading
Personal Weather Stations






























Interactive Weather Map New forecast layout! Learn more

10-Day Weather Forecast

Advertisements
Track Severe Weather on mobile